Time;durP1;ratioP1;P1;durP2;ratioP2;P2;SDS_P1;SDS_P2;PMS_P1;PMS_P2;Temp;Humidity;BMP_temperature;BMP_pressure;BME280_temperature;BME280_humidity;BME280_pressure;Samples;Min_cycle;Max_cycle;Signal;HPM_P1;HPM_P2
2023/08/16 00:00:49;;;;;;;;;6.00;2.00;;;;;;;;5061192;28;44828;-79
2023/08/16 00:03:14;;;;;;;;;4.75;1.50;;;;;;;;5045489;28;45551;-77
2023/08/16 00:05:40;;;;;;;;;3.75;3.50;;;;;;;;5048379;28;45639;-78
2023/08/16 00:08:05;;;;;;;;;2.25;2.25;;;;;;;;5051055;28;45799;-78
2023/08/16 00:10:30;;;;;;;;;5.33;4.00;;;;;;;;5038354;28;45671;-79
2023/08/16 00:12:56;;;;;;;;;3.75;2.50;;;;;;;;5050768;28;45483;-79
2023/08/16 00:15:22;;;;;;;;;5.00;3.25;;;;;;;;5056080;28;45260;-79
2023/08/16 00:17:47;;;;;;;;;3.00;3.00;;;;;;;;5035452;28;46392;-77
2023/08/16 00:20:13;;;;;;;;;2.25;2.25;;;;;;;;5025842;28;45486;-78
2023/08/16 00:22:38;;;;;;;;;2.00;2.00;;;;;;;;5052807;28;44985;-79
2023/08/16 00:25:03;;;;;;;;;1.25;1.25;;;;;;;;5066711;28;44822;-78
2023/08/16 00:27:28;;;;;;;;;2.00;2.00;;;;;;;;5038623;28;47041;-77
2023/08/16 00:29:54;;;;;;;;;2.00;2.00;;;;;;;;5047602;28;45446;-77
2023/08/16 00:32:19;;;;;;;;;3.00;3.00;;;;;;;;5039404;28;45525;-79
2023/08/16 00:34:44;;;;;;;;;3.75;2.50;;;;;;;;5055589;28;45296;-78
2023/08/16 00:37:09;;;;;;;;;3.75;2.25;;;;;;;;5045839;28;45398;-78
2023/08/16 00:39:35;;;;;;;;;2.75;2.75;;;;;;;;5054644;28;45770;-78
2023/08/16 00:42:00;;;;;;;;;2.50;2.00;;;;;;;;5051110;28;45738;-79
2023/08/16 00:44:25;;;;;;;;;1.75;1.75;;;;;;;;5039794;28;45487;-78
2023/08/16 00:46:51;;;;;;;;;3.00;1.25;;;;;;;;5042749;28;45419;-78
2023/08/16 00:49:16;;;;;;;;;3.00;2.00;;;;;;;;5053395;28;45285;-79
2023/08/16 00:51:42;;;;;;;;;2.25;2.00;;;;;;;;5042904;28;45421;-77
2023/08/16 00:54:08;;;;;;;;;2.00;2.00;;;;;;;;5046245;28;45144;-79
2023/08/16 00:56:34;;;;;;;;;4.00;1.75;;;;;;;;5028260;28;47072;-79
2023/08/16 00:58:59;;;;;;;;;3.50;3.50;;;;;;;;5046177;28;45919;-77
2023/08/16 01:01:25;;;;;;;;;1.25;1.25;;;;;;;;5054160;28;45887;-77
2023/08/16 01:03:50;;;;;;;;;2.00;2.00;;;;;;;;5061153;28;45570;-78
2023/08/16 01:06:15;;;;;;;;;2.00;2.00;;;;;;;;5030589;28;46520;-78
2023/08/16 01:08:41;;;;;;;;;2.50;2.50;;;;;;;;5046144;28;45762;-79
2023/08/16 01:11:12;;;;;;;;;3.50;3.00;;;;;;;;5035622;28;45494;-79
2023/08/16 01:13:44;;;;;;;;;3.00;3.00;;;;;;;;5043449;28;45549;-80
2023/08/16 01:16:10;;;;;;;;;2.00;2.00;;;;;;;;5043742;28;46820;-79
2023/08/16 01:18:40;;;;;;;;;4.00;2.75;;;;;;;;5047258;28;45304;-79
2023/08/16 01:21:06;;;;;;;;;2.00;2.00;;;;;;;;5042256;28;45825;-78
2023/08/16 01:23:43;;;;;;;;;2.75;2.75;;;;;;;;5045755;28;45534;-78
2023/08/16 01:26:23;;;;;;;;;2.75;1.75;;;;;;;;5057810;28;46706;-78
2023/08/16 01:28:49;;;;;;;;;0.75;0.75;;;;;;;;5052398;28;44805;-78
2023/08/16 01:31:14;;;;;;;;;3.00;3.00;;;;;;;;5050414;28;45647;-78
2023/08/16 01:33:40;;;;;;;;;5.50;2.00;;;;;;;;5044400;28;46316;-78
2023/08/16 01:36:05;;;;;;;;;1.75;1.75;;;;;;;;5049977;28;45442;-78
2023/08/16 01:38:30;;;;;;;;;1.25;1.25;;;;;;;;5049326;28;45490;-78
2023/08/16 01:41:05;;;;;;;;;4.00;2.00;;;;;;;;5051193;28;45394;-78
2023/08/16 01:43:30;;;;;;;;;1.00;1.00;;;;;;;;5049722;28;45652;-79
2023/08/16 01:45:56;;;;;;;;;3.75;2.00;;;;;;;;5020042;28;47651;-78
2023/08/16 01:48:23;;;;;;;;;1.00;1.00;;;;;;;;5055491;28;45839;-76
2023/08/16 01:50:48;;;;;;;;;3.50;2.25;;;;;;;;5038499;28;45628;-78
2023/08/16 01:53:14;;;;;;;;;2.00;2.00;;;;;;;;5040858;28;45596;-77
2023/08/16 01:55:39;;;;;;;;;3.00;1.25;;;;;;;;5048844;28;45187;-78
2023/08/16 01:58:04;;;;;;;;;3.00;2.00;;;;;;;;5053330;28;44765;-78
2023/08/16 02:00:29;;;;;;;;;3.75;3.00;;;;;;;;5049975;28;45385;-79
2023/08/16 02:02:55;;;;;;;;;3.25;3.25;;;;;;;;5055685;28;45272;-79
2023/08/16 02:05:20;;;;;;;;;1.75;1.75;;;;;;;;5042921;28;45482;-78
2023/08/16 02:07:45;;;;;;;;;4.50;3.00;;;;;;;;5026076;28;45320;-78
2023/08/16 02:10:10;;;;;;;;;1.75;1.75;;;;;;;;5050090;28;45477;-78
2023/08/16 02:12:35;;;;;;;;;2.00;2.00;;;;;;;;5043695;28;45668;-79
2023/08/16 02:15:01;;;;;;;;;1.25;1.25;;;;;;;;5045329;28;46210;-77
2023/08/16 02:17:26;;;;;;;;;1.25;0.25;;;;;;;;5066222;28;45945;-77
2023/08/16 02:19:52;;;;;;;;;1.00;1.00;;;;;;;;5057227;28;45447;-77
2023/08/16 02:22:18;;;;;;;;;3.00;2.00;;;;;;;;5061600;28;45290;-80
2023/08/16 02:24:43;;;;;;;;;1.25;1.25;;;;;;;;5063748;28;45674;-78
2023/08/16 02:27:08;;;;;;;;;1.00;1.00;;;;;;;;5045587;28;45394;-78
2023/08/16 02:29:33;;;;;;;;;2.50;1.25;;;;;;;;5049881;28;45301;-77
2023/08/16 02:31:58;;;;;;;;;1.00;1.00;;;;;;;;5045759;28;45816;-77
2023/08/16 02:34:24;;;;;;;;;1.00;1.00;;;;;;;;5052148;28;46246;-77
2023/08/16 02:36:49;;;;;;;;;1.00;1.00;;;;;;;;5056603;28;45371;-79
2023/08/16 02:39:14;;;;;;;;;1.00;1.00;;;;;;;;5034675;28;45660;-77
2023/08/16 02:41:40;;;;;;;;;1.50;1.50;;;;;;;;5047909;28;45313;-78
2023/08/16 02:44:05;;;;;;;;;1.25;1.00;;;;;;;;5043189;28;46779;-79
2023/08/16 02:46:30;;;;;;;;;3.75;2.00;;;;;;;;5044576;28;45447;-78
2023/08/16 02:48:55;;;;;;;;;1.00;1.00;;;;;;;;5046068;28;45446;-78
2023/08/16 02:51:21;;;;;;;;;2.50;1.00;;;;;;;;5029013;28;46017;-79
2023/08/16 02:53:46;;;;;;;;;1.00;1.00;;;;;;;;5045473;28;45447;-78
2023/08/16 02:56:11;;;;;;;;;1.00;1.00;;;;;;;;5046355;28;45447;-79
2023/08/16 02:58:37;;;;;;;;;1.00;1.00;;;;;;;;5054677;28;45489;-78
2023/08/16 03:01:03;;;;;;;;;1.00;1.00;;;;;;;;5057648;28;45430;-78
2023/08/16 03:03:28;;;;;;;;;3.00;1.75;;;;;;;;5017099;28;46999;-77
2023/08/16 03:05:53;;;;;;;;;1.75;1.00;;;;;;;;5026702;28;44796;-77
2023/08/16 03:08:18;;;;;;;;;1.50;1.50;;;;;;;;5059094;28;45711;-78
2023/08/16 03:10:44;;;;;;;;;2.00;2.00;;;;;;;;5032012;28;45791;-77
2023/08/16 03:13:09;;;;;;;;;2.00;2.00;;;;;;;;5056325;28;45586;-77
2023/08/16 03:15:34;;;;;;;;;1.25;1.25;;;;;;;;5048037;28;45835;-78
2023/08/16 03:18:00;;;;;;;;;1.00;1.00;;;;;;;;5052248;28;46101;-79
2023/08/16 03:20:25;;;;;;;;;1.00;1.00;;;;;;;;5047665;28;45457;-79
2023/08/16 03:22:50;;;;;;;;;3.00;3.00;;;;;;;;5021672;28;47180;-78
2023/08/16 03:25:16;;;;;;;;;1.00;1.00;;;;;;;;5051272;28;44738;-79
2023/08/16 03:27:41;;;;;;;;;3.00;2.00;;;;;;;;5047650;28;45225;-78
2023/08/16 03:30:07;;;;;;;;;3.50;2.50;;;;;;;;5058003;28;45008;-78
2023/08/16 03:32:32;;;;;;;;;1.25;1.25;;;;;;;;5061346;28;47506;-78
2023/08/16 03:34:57;;;;;;;;;1.00;1.00;;;;;;;;5046840;28;45535;-78
2023/08/16 03:37:22;;;;;;;;;2.00;1.00;;;;;;;;5054246;28;45404;-77
2023/08/16 03:39:48;;;;;;;;;1.00;1.00;;;;;;;;5035041;28;46017;-78
2023/08/16 03:42:13;;;;;;;;;0.00;0.00;;;;;;;;5058397;28;45018;-78
2023/08/16 03:44:38;;;;;;;;;4.00;1.75;;;;;;;;5048514;28;45312;-79
2023/08/16 03:47:04;;;;;;;;;1.00;1.00;;;;;;;;5048486;28;45345;-77
2023/08/16 03:49:29;;;;;;;;;2.75;2.00;;;;;;;;5047460;28;45561;-78
2023/08/16 03:51:55;;;;;;;;;2.00;1.00;;;;;;;;5038483;28;46730;-77
2023/08/16 03:54:20;;;;;;;;;1.25;1.00;;;;;;;;5029544;28;45829;-81
2023/08/16 03:56:45;;;;;;;;;0.25;0.25;;;;;;;;5029752;28;45570;-82
2023/08/16 03:59:10;;;;;;;;;1.00;0.50;;;;;;;;5049898;28;45545;-78
2023/08/16 04:01:36;;;;;;;;;2.00;2.00;;;;;;;;5012469;28;48026;-77
2023/08/16 04:04:01;;;;;;;;;2.00;1.00;;;;;;;;5029134;28;45469;-77
2023/08/16 04:06:26;;;;;;;;;1.00;1.00;;;;;;;;5047469;28;45692;-79
2023/08/16 04:08:51;;;;;;;;;0.75;0.75;;;;;;;;5042375;28;45491;-77
2023/08/16 04:11:17;;;;;;;;;1.25;1.00;;;;;;;;5056674;28;45987;-77
2023/08/16 04:13:42;;;;;;;;;2.00;2.00;;;;;;;;5047794;28;45814;-77
2023/08/16 04:16:07;;;;;;;;;2.00;2.00;;;;;;;;5048186;28;45478;-78
2023/08/16 04:18:32;;;;;;;;;1.75;1.75;;;;;;;;5035950;28;45825;-77
2023/08/16 04:20:58;;;;;;;;;3.25;2.00;;;;;;;;5043326;28;45710;-78
2023/08/16 04:23:23;;;;;;;;;3.50;1.00;;;;;;;;5039750;28;45479;-78
2023/08/16 04:25:49;;;;;;;;;2.25;2.25;;;;;;;;5037815;28;45900;-79
2023/08/16 04:28:14;;;;;;;;;1.25;1.25;;;;;;;;5040381;28;45808;-77
2023/08/16 04:30:39;;;;;;;;;7.33;7.00;;;;;;;;5043264;28;45740;-80
2023/08/16 04:33:04;;;;;;;;;1.25;1.00;;;;;;;;5046002;28;45552;-79
2023/08/16 04:35:30;;;;;;;;;4.50;3.00;;;;;;;;5027846;28;45913;-78
2023/08/16 04:37:55;;;;;;;;;1.00;1.00;;;;;;;;5031224;28;45650;-79
2023/08/16 04:40:20;;;;;;;;;4.25;2.00;;;;;;;;5045582;28;46023;-79
2023/08/16 04:42:45;;;;;;;;;3.50;2.75;;;;;;;;5041765;28;45546;-79
2023/08/16 04:45:11;;;;;;;;;1.00;1.00;;;;;;;;5048947;28;46662;-79
2023/08/16 04:47:36;;;;;;;;;1.50;1.00;;;;;;;;5051334;28;45376;-78
2023/08/16 04:50:06;;;;;;;;;1.50;1.50;;;;;;;;5050973;28;45569;-79
2023/08/16 04:52:35;;;;;;;;;1.50;1.50;;;;;;;;5030089;28;45796;-78
2023/08/16 04:55:00;;;;;;;;;1.00;1.00;;;;;;;;5039075;28;45939;-77
2023/08/16 04:57:26;;;;;;;;;2.00;2.00;;;;;;;;5050755;28;45795;-78
2023/08/16 04:59:51;;;;;;;;;3.00;3.00;;;;;;;;5031667;28;46310;-78
2023/08/16 05:02:16;;;;;;;;;2.00;2.00;;;;;;;;5048807;28;45960;-78
2023/08/16 05:04:41;;;;;;;;;2.00;2.00;;;;;;;;5031973;28;46017;-79
2023/08/16 05:07:07;;;;;;;;;3.25;2.00;;;;;;;;5017478;28;46117;-78
2023/08/16 05:09:32;;;;;;;;;2.00;2.00;;;;;;;;5031537;28;46014;-79
2023/08/16 05:11:57;;;;;;;;;2.25;2.25;;;;;;;;5044971;28;45448;-79
2023/08/16 05:14:23;;;;;;;;;1.75;1.75;;;;;;;;5035727;28;45582;-78
2023/08/16 05:16:48;;;;;;;;;1.50;1.50;;;;;;;;5032571;28;45431;-78
2023/08/16 05:19:14;;;;;;;;;2.25;2.25;;;;;;;;5033704;28;45501;-79
2023/08/16 05:21:41;;;;;;;;;4.00;2.50;;;;;;;;5034075;28;45648;-78
2023/08/16 05:24:08;;;;;;;;;1.25;1.25;;;;;;;;5034696;28;45466;-78
2023/08/16 05:26:33;;;;;;;;;3.00;2.00;;;;;;;;5034809;28;45576;-77
2023/08/16 05:28:58;;;;;;;;;3.50;3.00;;;;;;;;5019602;28;47420;-79
2023/08/16 05:31:23;;;;;;;;;3.00;3.00;;;;;;;;5041229;28;45479;-78
2023/08/16 05:33:49;;;;;;;;;7.75;2.25;;;;;;;;5049793;28;45500;-78
2023/08/16 05:36:14;;;;;;;;;2.75;2.00;;;;;;;;5039305;28;45948;-78
2023/08/16 05:38:39;;;;;;;;;3.50;2.00;;;;;;;;5011450;28;47434;-78
2023/08/16 05:41:05;;;;;;;;;2.00;2.00;;;;;;;;5037764;28;45592;-79
2023/08/16 05:43:31;;;;;;;;;4.25;3.00;;;;;;;;5047556;28;45488;-79
2023/08/16 05:45:56;;;;;;;;;2.00;2.00;;;;;;;;5046542;28;45455;-77
2023/08/16 05:48:21;;;;;;;;;6.00;2.75;;;;;;;;5046575;28;46263;-78
2023/08/16 05:50:46;;;;;;;;;5.50;2.50;;;;;;;;5044353;28;45434;-78
2023/08/16 05:53:12;;;;;;;;;1.50;1.50;;;;;;;;5021892;28;45401;-79
2023/08/16 05:55:37;;;;;;;;;3.25;3.25;;;;;;;;5040702;28;45503;-78
2023/08/16 05:58:03;;;;;;;;;4.00;4.00;;;;;;;;5065861;28;45888;-79
2023/08/16 06:00:29;;;;;;;;;2.75;2.75;;;;;;;;5029399;28;45533;-78
2023/08/16 06:02:54;;;;;;;;;3.75;2.50;;;;;;;;5048322;28;45766;-80
2023/08/16 06:05:20;;;;;;;;;7.25;5.25;;;;;;;;5049514;28;45828;-78
2023/08/16 06:07:45;;;;;;;;;6.75;4.25;;;;;;;;5025715;28;47329;-80
2023/08/16 06:10:11;;;;;;;;;4.75;3.25;;;;;;;;5049160;28;45525;-80
2023/08/16 06:12:36;;;;;;;;;6.00;4.00;;;;;;;;5011739;28;45822;-79
2023/08/16 06:15:02;;;;;;;;;4.00;4.00;;;;;;;;5012776;28;45897;-78
2023/08/16 06:17:27;;;;;;;;;3.50;3.00;;;;;;;;5030601;28;46143;-78
2023/08/16 06:19:53;;;;;;;;;3.00;2.50;;;;;;;;5041352;28;45947;-78
2023/08/16 06:22:18;;;;;;;;;8.00;4.00;;;;;;;;5037592;28;45917;-78
2023/08/16 06:24:43;;;;;;;;;6.50;3.75;;;;;;;;5050743;28;45455;-78
2023/08/16 06:27:08;;;;;;;;;4.00;4.00;;;;;;;;5050413;28;46411;-78
2023/08/16 06:29:34;;;;;;;;;5.25;3.75;;;;;;;;5024638;28;45631;-79
2023/08/16 06:32:00;;;;;;;;;5.25;4.00;;;;;;;;5036400;28;45812;-79
2023/08/16 06:34:26;;;;;;;;;7.00;4.50;;;;;;;;5022198;28;45985;-78
2023/08/16 06:36:52;;;;;;;;;6.00;5.00;;;;;;;;5031331;28;45758;-79
2023/08/16 06:39:17;;;;;;;;;5.75;4.00;;;;;;;;5011261;28;45725;-78
2023/08/16 06:41:42;;;;;;;;;5.50;5.50;;;;;;;;5030058;28;45776;-78
2023/08/16 06:44:07;;;;;;;;;7.00;6.25;;;;;;;;5039671;28;45759;-79
2023/08/16 06:46:33;;;;;;;;;8.00;8.00;;;;;;;;5050502;28;45609;-78
2023/08/16 06:48:59;;;;;;;;;7.33;6.00;;;;;;;;5032981;28;45447;-79
2023/08/16 06:51:24;;;;;;;;;4.00;3.25;;;;;;;;5015664;28;45761;-77
2023/08/16 06:53:50;;;;;;;;;5.00;5.00;;;;;;;;5022481;28;45940;-79
2023/08/16 06:56:16;;;;;;;;;7.00;5.67;;;;;;;;5039518;28;46494;-78
2023/08/16 06:58:41;;;;;;;;;4.00;4.00;;;;;;;;5038363;28;45780;-77
2023/08/16 07:01:08;;;;;;;;;6.25;5.00;;;;;;;;5030741;28;45534;-77
2023/08/16 07:03:33;;;;;;;;;9.00;7.00;;;;;;;;5012352;28;46287;-78
2023/08/16 07:05:58;;;;;;;;;4.00;3.50;;;;;;;;5032426;28;46152;-77
2023/08/16 07:08:23;;;;;;;;;4.50;3.00;;;;;;;;5040859;28;45570;-77
2023/08/16 07:10:48;;;;;;;;;5.00;5.00;;;;;;;;5040935;28;45621;-78
2023/08/16 07:13:14;;;;;;;;;5.25;4.25;;;;;;;;5035579;28;45659;-77
2023/08/16 07:15:39;;;;;;;;;6.75;4.25;;;;;;;;5033666;28;48034;-79
2023/08/16 07:18:05;;;;;;;;;5.00;3.00;;;;;;;;5037884;28;45760;-78
2023/08/16 07:20:31;;;;;;;;;6.50;5.25;;;;;;;;5020320;28;45892;-79
2023/08/16 07:22:58;;;;;;;;;9.50;5.25;;;;;;;;5037675;28;45435;-78
2023/08/16 07:25:25;;;;;;;;;3.00;3.00;;;;;;;;5018963;28;48015;-78
2023/08/16 07:27:50;;;;;;;;;5.25;2.25;;;;;;;;5014101;28;45569;-79
2023/08/16 07:30:15;;;;;;;;;1.75;1.75;;;;;;;;5031424;28;45933;-78
2023/08/16 07:32:41;;;;;;;;;4.25;3.50;;;;;;;;5023389;28;46444;-77
2023/08/16 07:35:07;;;;;;;;;3.00;3.00;;;;;;;;5034553;28;46101;-77
2023/08/16 07:37:33;;;;;;;;;6.00;5.00;;;;;;;;5013919;28;46110;-78
2023/08/16 07:39:59;;;;;;;;;7.00;4.00;;;;;;;;5037378;28;45404;-77
2023/08/16 07:42:24;;;;;;;;;6.50;6.00;;;;;;;;5060807;28;44737;-77
2023/08/16 07:44:49;;;;;;;;;4.25;4.25;;;;;;;;5041556;28;46131;-78
2023/08/16 07:47:14;;;;;;;;;3.75;3.50;;;;;;;;5017777;28;45725;-77
2023/08/16 07:49:40;;;;;;;;;3.75;3.75;;;;;;;;5021115;28;45898;-78
2023/08/16 07:52:05;;;;;;;;;4.25;3.00;;;;;;;;5039634;28;45805;-78
2023/08/16 07:54:31;;;;;;;;;3.25;3.25;;;;;;;;5045131;28;45776;-77
2023/08/16 07:56:56;;;;;;;;;5.25;4.50;;;;;;;;5049042;28;45576;-77
2023/08/16 07:59:21;;;;;;;;;6.00;6.00;;;;;;;;5037377;28;45436;-77
2023/08/16 08:01:47;;;;;;;;;9.75;5.25;;;;;;;;5025331;28;45874;-78
2023/08/16 08:04:12;;;;;;;;;11.75;9.50;;;;;;;;5010985;28;46847;-78
2023/08/16 08:06:37;;;;;;;;;11.50;9.00;;;;;;;;5017859;28;46280;-77
2023/08/16 08:09:03;;;;;;;;;8.00;7.00;;;;;;;;5036377;28;45787;-79
2023/08/16 08:11:28;;;;;;;;;8.00;6.50;;;;;;;;5031412;28;45810;-78
2023/08/16 08:13:54;;;;;;;;;6.75;4.25;;;;;;;;5030832;28;45497;-78
2023/08/16 08:16:19;;;;;;;;;10.00;9.50;;;;;;;;5030729;28;45827;-79
2023/08/16 08:18:45;;;;;;;;;4.00;4.00;;;;;;;;4999991;28;45651;-79
2023/08/16 08:21:10;;;;;;;;;7.50;6.00;;;;;;;;5037159;28;45452;-78
2023/08/16 08:23:36;;;;;;;;;8.00;6.00;;;;;;;;5035530;28;46338;-77
2023/08/16 08:26:01;;;;;;;;;6.00;4.25;;;;;;;;5029529;28;45631;-78
2023/08/16 08:28:26;;;;;;;;;6.25;5.25;;;;;;;;5040435;28;45454;-80
2023/08/16 08:30:52;;;;;;;;;10.75;6.00;;;;;;;;5024272;28;47017;-78
2023/08/16 08:33:17;;;;;;;;;3.00;3.00;;;;;;;;5046533;28;47016;-78
2023/08/16 08:35:42;;;;;;;;;3.25;3.00;;;;;;;;5021490;28;45882;-79
2023/08/16 08:38:08;;;;;;;;;7.75;5.50;;;;;;;;5040312;28;45824;-79
2023/08/16 08:40:33;;;;;;;;;3.75;2.75;;;;;;;;5051134;28;45746;-78
2023/08/16 08:42:59;;;;;;;;;7.50;3.50;;;;;;;;5032104;28;47226;-77
2023/08/16 08:45:26;;;;;;;;;4.75;4.00;;;;;;;;5033595;28;45467;-79
2023/08/16 08:47:51;;;;;;;;;6.50;6.00;;;;;;;;5050258;28;45764;-80
2023/08/16 08:50:17;;;;;;;;;5.00;2.00;;;;;;;;5042390;28;45498;-77
2023/08/16 08:52:42;;;;;;;;;5.00;4.00;;;;;;;;5037784;28;45718;-79
2023/08/16 08:55:08;;;;;;;;;6.00;4.75;;;;;;;;5023819;28;45350;-78
2023/08/16 08:57:34;;;;;;;;;4.75;4.00;;;;;;;;5046474;28;45701;-78
2023/08/16 09:00:00;;;;;;;;;7.00;6.00;;;;;;;;5041703;28;45581;-77
2023/08/16 09:02:27;;;;;;;;;9.50;6.00;;;;;;;;5032773;28;45760;-78
2023/08/16 09:04:55;;;;;;;;;7.00;5.00;;;;;;;;5044266;28;45448;-79
2023/08/16 09:07:21;;;;;;;;;4.50;3.50;;;;;;;;5039645;28;45363;-77
2023/08/16 09:09:49;;;;;;;;;4.75;3.50;;;;;;;;5052088;28;45588;-78
2023/08/16 09:12:14;;;;;;;;;2.50;2.50;;;;;;;;5050476;28;46203;-78
2023/08/16 09:14:39;;;;;;;;;4.50;3.00;;;;;;;;5032469;28;45757;-78
2023/08/16 09:17:04;;;;;;;;;8.25;5.00;;;;;;;;5044250;28;45898;-78
2023/08/16 09:19:30;;;;;;;;;4.00;3.00;;;;;;;;5034013;28;46170;-78
2023/08/16 09:21:56;;;;;;;;;5.75;2.25;;;;;;;;5051986;28;45409;-79
2023/08/16 09:24:24;;;;;;;;;4.50;4.50;;;;;;;;5053644;28;45191;-78
2023/08/16 09:26:49;;;;;;;;;12.75;8.25;;;;;;;;5039303;28;45721;-78
2023/08/16 09:29:17;;;;;;;;;6.50;5.50;;;;;;;;5037497;28;45612;-77
2023/08/16 09:31:43;;;;;;;;;6.00;3.50;;;;;;;;5038953;28;45518;-81
2023/08/16 09:34:09;;;;;;;;;3.25;3.00;;;;;;;;5033586;28;45673;-78
2023/08/16 09:36:37;;;;;;;;;3.00;3.00;;;;;;;;5035246;28;45734;-78
2023/08/16 09:39:05;;;;;;;;;6.00;4.00;;;;;;;;5033481;28;45480;-79
2023/08/16 09:41:30;;;;;;;;;6.25;3.00;;;;;;;;5048560;28;45522;-85
2023/08/16 09:44:06;;;;;;;;;3.00;3.00;;;;;;;;5021460;28;45980;-87
2023/08/16 09:46:31;;;;;;;;;2.75;2.75;;;;;;;;5021697;28;45954;-85
2023/08/16 09:49:06;;;;;;;;;1.00;0.00;;;;;;;;5016973;28;47498;-86
2023/08/16 09:51:32;;;;;;;;;3.25;3.25;;;;;;;;5015970;28;48421;-85
2023/08/16 09:53:57;;;;;;;;;3.00;2.75;;;;;;;;5034429;28;45704;-79
2023/08/16 09:56:25;;;;;;;;;2.00;2.00;;;;;;;;5038105;28;45654;-81
2023/08/16 09:58:51;;;;;;;;;3.50;3.50;;;;;;;;5020937;28;46357;-80
2023/08/16 10:01:16;;;;;;;;;3.00;3.00;;;;;;;;5024709;28;47090;-78
2023/08/16 10:03:41;;;;;;;;;2.75;2.00;;;;;;;;5043648;28;45481;-86
2023/08/16 10:06:08;;;;;;;;;3.50;2.00;;;;;;;;5052089;28;45871;-87
2023/08/16 10:08:34;;;;;;;;;2.00;2.00;;;;;;;;5038138;28;46943;-86
2023/08/16 10:11:00;;;;;;;;;2.50;2.50;;;;;;;;5053574;28;45407;-86
2023/08/16 10:13:25;;;;;;;;;3.25;3.00;;;;;;;;5045737;28;45633;-88
2023/08/16 10:15:50;;;;;;;;;4.25;3.00;;;;;;;;5031302;28;45468;-88
2023/08/16 10:18:17;;;;;;;;;4.50;3.00;;;;;;;;5023565;28;45526;-85
2023/08/16 10:20:45;;;;;;;;;3.00;3.00;;;;;;;;5032421;28;47149;-86
2023/08/16 10:23:11;;;;;;;;;1.00;1.00;;;;;;;;5041530;28;45459;-79
2023/08/16 10:25:46;;;;;;;;;2.75;2.75;;;;;;;;5019497;28;45506;-79
2023/08/16 10:28:14;;;;;;;;;1.00;1.00;;;;;;;;5038625;28;45811;-80
2023/08/16 10:30:39;;;;;;;;;2.25;1.25;;;;;;;;5045420;28;46626;-78
2023/08/16 10:33:07;;;;;;;;;3.25;1.75;;;;;;;;5032271;28;46135;-80
2023/08/16 10:35:33;;;;;;;;;1.00;1.00;;;;;;;;5019708;28;45851;-79
2023/08/16 10:37:58;;;;;;;;;2.75;2.75;;;;;;;;5051824;28;45692;-79
2023/08/16 10:40:24;;;;;;;;;2.00;2.00;;;;;;;;5018975;28;45712;-79
2023/08/16 10:42:55;;;;;;;;;3.50;2.50;;;;;;;;5039124;28;45397;-77
2023/08/16 10:45:21;;;;;;;;;4.50;3.00;;;;;;;;5042850;28;44876;-78
2023/08/16 10:47:47;;;;;;;;;1.00;1.00;;;;;;;;5043792;28;45411;-78
2023/08/16 10:50:14;;;;;;;;;3.00;3.00;;;;;;;;5076557;28;45502;-87
2023/08/16 10:52:41;;;;;;;;;2.25;1.75;;;;;;;;5061213;28;45470;-84
2023/08/16 10:55:07;;;;;;;;;1.00;1.00;;;;;;;;5052759;28;44765;-84
2023/08/16 10:57:34;;;;;;;;;2.00;2.00;;;;;;;;5035805;28;46039;-86
2023/08/16 11:00:04;;;;;;;;;1.75;1.75;;;;;;;;5061144;28;45640;-86
2023/08/16 11:02:30;;;;;;;;;2.00;1.50;;;;;;;;5048505;28;44857;-84
2023/08/16 11:04:55;;;;;;;;;3.00;3.00;;;;;;;;5037042;28;44825;-86
2023/08/16 11:07:21;;;;;;;;;2.25;2.25;;;;;;;;5018118;28;45303;-86
2023/08/16 11:09:46;;;;;;;;;1.75;1.75;;;;;;;;5046441;28;47306;-85
2023/08/16 11:12:14;;;;;;;;;1.00;1.00;;;;;;;;5064703;28;44796;-87
2023/08/16 11:14:39;;;;;;;;;4.00;1.00;;;;;;;;5035707;28;45215;-84
2023/08/16 11:17:05;;;;;;;;;2.00;2.00;;;;;;;;5052415;28;45917;-85
2023/08/16 11:19:30;;;;;;;;;4.00;2.25;;;;;;;;5059390;28;46903;-84
2023/08/16 11:22:01;;;;;;;;;2.00;1.75;;;;;;;;5043608;28;45207;-85
2023/08/16 11:24:26;;;;;;;;;2.00;2.00;;;;;;;;5057691;28;45641;-86
2023/08/16 11:26:53;;;;;;;;;2.25;2.25;;;;;;;;5059674;28;44757;-88
2023/08/16 11:29:18;;;;;;;;;2.00;2.00;;;;;;;;5051658;28;46159;-85
2023/08/16 11:31:44;;;;;;;;;3.00;1.00;;;;;;;;5079593;28;45529;-86
2023/08/16 11:34:13;;;;;;;;;3.50;3.50;;;;;;;;5061649;28;44758;-87
2023/08/16 11:36:38;;;;;;;;;3.25;3.25;;;;;;;;5058474;28;44838;-85
2023/08/16 11:39:04;;;;;;;;;2.25;2.25;;;;;;;;5047716;28;46869;-85
2023/08/16 11:41:30;;;;;;;;;3.00;2.75;;;;;;;;5045991;28;44722;-87
2023/08/16 11:43:59;;;;;;;;;3.00;2.00;;;;;;;;5051545;28;44746;-86
2023/08/16 11:46:24;;;;;;;;;3.25;2.50;;;;;;;;5041187;28;45574;-85
2023/08/16 11:48:50;;;;;;;;;3.75;3.00;;;;;;;;5035061;28;46950;-85
2023/08/16 11:51:15;;;;;;;;;4.00;2.75;;;;;;;;5039904;28;44788;-86
2023/08/16 11:53:40;;;;;;;;;3.75;2.00;;;;;;;;5022868;28;45483;-85
2023/08/16 11:56:09;;;;;;;;;1.00;1.00;;;;;;;;5062789;28;45785;-85
2023/08/16 11:58:45;;;;;;;;;1.00;1.00;;;;;;;;5041271;28;45289;-85
2023/08/16 12:01:14;;;;;;;;;1.20;1.20;;;;;;;;5041871;28;45748;-86
2023/08/16 12:03:41;;;;;;;;;2.00;2.00;;;;;;;;5058304;28;45809;-84
2023/08/16 12:06:08;;;;;;;;;3.00;2.00;;;;;;;;5047151;28;45814;-86
2023/08/16 12:08:34;;;;;;;;;1.00;1.00;;;;;;;;5080737;28;45517;-86
2023/08/16 12:10:59;;;;;;;;;2.00;2.00;;;;;;;;5062234;28;45340;-86
2023/08/16 12:13:24;;;;;;;;;1.75;1.75;;;;;;;;5079578;28;45471;-84
2023/08/16 12:15:50;;;;;;;;;1.50;1.50;;;;;;;;5057841;28;45045;-85
2023/08/16 12:18:17;;;;;;;;;3.00;1.00;;;;;;;;5076991;28;45464;-87
2023/08/16 12:20:42;;;;;;;;;2.00;1.75;;;;;;;;5063440;28;44729;-86
2023/08/16 12:23:08;;;;;;;;;4.00;1.00;;;;;;;;5069424;28;45396;-84
2023/08/16 12:25:34;;;;;;;;;2.25;1.25;;;;;;;;5045027;28;45575;-87
2023/08/16 12:27:59;;;;;;;;;3.50;2.50;;;;;;;;5062735;28;45350;-86
2023/08/16 12:30:25;;;;;;;;;2.00;2.00;;;;;;;;5064896;28;44968;-86
2023/08/16 12:32:51;;;;;;;;;6.00;3.75;;;;;;;;5058275;28;45295;-87
2023/08/16 12:35:16;;;;;;;;;4.25;3.25;;;;;;;;5046287;28;46031;-86
2023/08/16 12:37:42;;;;;;;;;2.00;2.00;;;;;;;;5043869;28;46506;-86
2023/08/16 12:40:09;;;;;;;;;3.00;3.00;;;;;;;;5049253;28;44910;-86
2023/08/16 12:42:34;;;;;;;;;2.00;2.00;;;;;;;;5065860;28;44805;-83
2023/08/16 12:44:59;;;;;;;;;3.00;2.00;;;;;;;;5047475;28;45998;-86
2023/08/16 12:47:24;;;;;;;;;3.00;3.00;;;;;;;;5042352;28;46280;-85
2023/08/16 12:49:50;;;;;;;;;3.25;2.25;;;;;;;;5072943;28;44752;-87
2023/08/16 12:52:15;;;;;;;;;1.75;1.75;;;;;;;;5074831;28;45228;-86
2023/08/16 12:54:41;;;;;;;;;4.75;3.00;;;;;;;;5078233;28;44956;-85
2023/08/16 12:57:06;;;;;;;;;4.00;3.00;;;;;;;;5041430;28;47026;-88
2023/08/16 12:59:31;;;;;;;;;1.00;1.00;;;;;;;;5060155;28;44814;-88
2023/08/16 13:01:57;;;;;;;;;3.75;0.00;;;;;;;;5051529;28;44922;-86
2023/08/16 13:04:22;;;;;;;;;1.00;1.00;;;;;;;;5033996;28;46282;-85
2023/08/16 13:06:48;;;;;;;;;3.00;3.00;;;;;;;;5068192;28;45513;-88
2023/08/16 13:09:16;;;;;;;;;5.50;2.75;;;;;;;;5052834;28;45994;-86
2023/08/16 13:11:42;;;;;;;;;1.75;1.75;;;;;;;;5045041;28;45286;-86
2023/08/16 13:14:09;;;;;;;;;4.50;3.25;;;;;;;;5032457;28;47298;-86
2023/08/16 13:16:35;;;;;;;;;1.50;1.50;;;;;;;;5066350;28;45383;-85
2023/08/16 13:19:00;;;;;;;;;4.00;4.00;;;;;;;;5054520;28;45541;-85
2023/08/16 13:21:26;;;;;;;;;7.00;4.75;;;;;;;;5058139;28;45040;-87
2023/08/16 13:23:51;;;;;;;;;4.00;3.00;;;;;;;;5062168;28;44784;-89
2023/08/16 13:26:17;;;;;;;;;3.00;3.00;;;;;;;;5068023;28;45584;-86
2023/08/16 13:28:42;;;;;;;;;3.25;2.75;;;;;;;;5041090;28;44916;-86
2023/08/16 13:31:09;;;;;;;;;0.00;0.00;;;;;;;;5067563;28;45755;-85
2023/08/16 13:33:34;;;;;;;;;3.50;2.00;;;;;;;;5057683;28;46119;-86
2023/08/16 13:35:59;;;;;;;;;6.50;4.25;;;;;;;;5058752;28;47247;-87
2023/08/16 13:38:24;;;;;;;;;2.50;2.50;;;;;;;;5050352;28;45437;-87
2023/08/16 13:40:51;;;;;;;;;1.50;1.50;;;;;;;;5068484;28;44792;-86
2023/08/16 13:43:16;;;;;;;;;2.00;2.00;;;;;;;;5041942;28;46094;-87
2023/08/16 13:45:46;;;;;;;;;2.00;2.00;;;;;;;;5055154;28;45227;-87
2023/08/16 13:48:12;;;;;;;;;1.00;1.00;;;;;;;;5033263;28;44727;-87
2023/08/16 13:50:37;;;;;;;;;3.25;2.00;;;;;;;;5036689;28;45109;-85
2023/08/16 13:53:03;;;;;;;;;2.00;2.00;;;;;;;;5043235;28;45509;-83
2023/08/16 13:55:29;;;;;;;;;2.00;2.00;;;;;;;;5043829;28;47384;-84
2023/08/16 13:57:55;;;;;;;;;3.75;3.75;;;;;;;;5058253;28;45735;-85
2023/08/16 14:00:20;;;;;;;;;2.00;2.00;;;;;;;;5048944;28;45232;-86
2023/08/16 14:02:45;;;;;;;;;2.25;2.25;;;;;;;;5040628;28;45768;-84
2023/08/16 14:05:10;;;;;;;;;2.50;2.00;;;;;;;;5041390;28;46877;-84
2023/08/16 14:07:37;;;;;;;;;2.00;2.00;;;;;;;;5039700;28;44837;-82
2023/08/16 14:10:03;;;;;;;;;2.50;2.50;;;;;;;;5046131;28;45674;-83
2023/08/16 14:12:28;;;;;;;;;3.25;2.00;;;;;;;;5063283;28;44748;-85
2023/08/16 14:14:54;;;;;;;;;1.00;1.00;;;;;;;;5040218;28;45133;-86
2023/08/16 14:17:19;;;;;;;;;2.00;2.00;;;;;;;;5038876;28;45010;-84
2023/08/16 14:19:44;;;;;;;;;2.75;2.75;;;;;;;;5041620;28;45397;-84
2023/08/16 14:22:10;;;;;;;;;2.00;2.00;;;;;;;;5032354;28;46125;-84
2023/08/16 14:24:35;;;;;;;;;3.00;3.00;;;;;;;;5048308;28;45898;-85
2023/08/16 14:27:01;;;;;;;;;3.00;3.00;;;;;;;;5039275;28;44725;-87
2023/08/16 14:29:26;;;;;;;;;2.25;2.25;;;;;;;;5040066;28;45810;-86
2023/08/16 14:31:51;;;;;;;;;3.50;2.50;;;;;;;;5041878;28;45666;-86
2023/08/16 14:34:17;;;;;;;;;3.00;3.00;;;;;;;;5053337;28;46682;-85